createdAt,value
2019-02-18T00:00:57.715Z,3.50
2019-02-18T00:03:23.750Z,3.40
2019-02-18T00:05:49.797Z,3.40
2019-02-18T00:08:15.826Z,3.40
2019-02-18T00:10:41.902Z,3.40
2019-02-18T00:13:07.958Z,3.30
2019-02-18T00:15:33.975Z,3.30
2019-02-18T00:18:00.023Z,3.30
2019-02-18T00:20:26.036Z,3.30
2019-02-18T00:22:52.163Z,3.20
2019-02-18T00:25:18.180Z,3.20
2019-02-18T00:27:44.223Z,3.20
2019-02-18T00:30:10.443Z,3.20
2019-02-18T00:32:36.488Z,3.10
2019-02-18T00:35:02.804Z,3.10
2019-02-18T00:37:28.848Z,3.10
2019-02-18T00:39:55.071Z,3.10
2019-02-18T00:42:21.147Z,3.00
2019-02-18T00:44:47.164Z,3.10
2019-02-18T00:47:13.201Z,3.00
2019-02-18T00:49:39.212Z,3.00
2019-02-18T00:52:05.268Z,3.00
2019-02-18T00:54:31.280Z,3.00
2019-02-18T00:56:57.319Z,3.00
2019-02-18T00:59:23.327Z,3.00
2019-02-18T01:01:49.460Z,2.90
2019-02-18T01:04:15.471Z,2.90
2019-02-18T01:06:41.486Z,2.90
2019-02-18T01:09:08.620Z,2.90
2019-02-18T01:11:34.633Z,2.90
2019-02-18T01:14:01.628Z,2.90
2019-02-18T01:16:27.664Z,2.90
2019-02-18T01:18:53.687Z,2.90
2019-02-18T01:21:19.716Z,2.80
2019-02-18T01:23:45.852Z,2.80
2019-02-18T01:26:11.864Z,2.80
2019-02-18T01:28:37.895Z,2.80
2019-02-18T01:31:03.906Z,2.70
2019-02-18T01:33:29.935Z,2.80
2019-02-18T01:35:55.948Z,2.70
2019-02-18T01:38:21.987Z,2.70
2019-02-18T01:40:47.995Z,2.70
2019-02-18T01:43:14.026Z,2.70
2019-02-18T01:45:40.044Z,2.70
2019-02-18T01:48:06.131Z,2.60
2019-02-18T01:50:32.223Z,2.60
2019-02-18T01:52:58.287Z,2.60
2019-02-18T01:55:24.303Z,2.60
2019-02-18T01:57:50.325Z,2.60
2019-02-18T02:00:16.336Z,2.60
2019-02-18T02:02:42.543Z,2.50
2019-02-18T02:05:08.755Z,2.50
2019-02-18T02:07:56.643Z,2.50
2019-02-18T02:10:22.706Z,2.60
2019-02-18T02:12:48.759Z,2.50
2019-02-18T02:15:24.283Z,2.40
2019-02-18T02:17:50.328Z,2.40
2019-02-18T02:20:16.347Z,2.40
2019-02-18T02:22:42.364Z,2.40
2019-02-18T02:25:08.599Z,2.40
2019-02-18T02:27:34.611Z,2.40
2019-02-18T02:30:01.473Z,2.40
2019-02-18T02:32:27.502Z,2.40
2019-02-18T02:34:53.538Z,2.40
2019-02-18T02:37:19.551Z,2.40
2019-02-18T02:39:45.599Z,2.30
2019-02-18T02:42:11.695Z,2.30
2019-02-18T02:44:37.787Z,2.30
2019-02-18T02:47:03.796Z,2.20
2019-02-18T02:49:29.828Z,2.20
2019-02-18T02:51:55.917Z,2.20
2019-02-18T02:54:21.951Z,2.20
2019-02-18T02:56:47.978Z,2.10
2019-02-18T02:59:14.003Z,2.20
2019-02-18T03:01:40.024Z,2.10
2019-02-18T03:04:06.223Z,2.10
2019-02-18T03:06:32.291Z,2.10
2019-02-18T03:08:58.427Z,2.10
2019-02-18T03:11:24.435Z,2.00
2019-02-18T03:13:50.472Z,2.10
2019-02-18T03:16:16.487Z,2.00
2019-02-18T03:18:42.515Z,2.00
2019-02-18T03:21:08.531Z,2.00
2019-02-18T03:23:34.562Z,2.00
2019-02-18T03:26:00.577Z,2.00
2019-02-18T03:28:41.963Z,2.00
2019-02-18T03:31:11.810Z,2.00
2019-02-18T03:33:44.469Z,2.00
2019-02-18T03:36:10.491Z,1.90
2019-02-18T03:38:36.523Z,1.90
2019-02-18T03:41:03.543Z,2.00
2019-02-18T03:43:29.863Z,1.90
2019-02-18T03:45:55.919Z,1.90
2019-02-18T03:48:21.947Z,1.90
2019-02-18T03:50:47.984Z,1.90
2019-02-18T03:53:13.999Z,1.90
2019-02-18T03:55:40.029Z,1.90
2019-02-18T03:58:06.047Z,1.90
2019-02-18T04:00:32.182Z,1.90
2019-02-18T04:02:58.296Z,1.80
2019-02-18T04:05:24.329Z,1.80
2019-02-18T04:07:50.349Z,1.90
2019-02-18T04:10:16.389Z,1.80
2019-02-18T04:12:42.401Z,1.80
2019-02-18T04:15:11.030Z,1.80
2019-02-18T04:17:37.051Z,1.80
2019-02-18T04:20:04.823Z,1.80
2019-02-18T04:22:30.851Z,1.80
2019-02-18T04:24:56.874Z,1.80
2019-02-18T04:27:22.902Z,1.80
2019-02-18T04:29:48.919Z,1.80
2019-02-18T04:32:14.948Z,1.70
2019-02-18T04:34:40.968Z,1.70
2019-02-18T04:37:07.035Z,1.70
2019-02-18T04:39:33.050Z,1.70
2019-02-18T04:41:59.080Z,1.70
2019-02-18T04:44:25.122Z,1.70
2019-02-18T04:46:51.147Z,1.70
2019-02-18T04:49:17.160Z,1.70
2019-02-18T04:51:43.197Z,1.60
2019-02-18T04:54:09.205Z,1.60
2019-02-18T04:56:35.232Z,1.60
2019-02-18T04:59:01.245Z,1.60
2019-02-18T05:01:27.272Z,1.60
2019-02-18T05:03:53.290Z,1.60
2019-02-18T05:06:19.311Z,1.60
2019-02-18T05:08:45.329Z,1.60
2019-02-18T05:11:11.389Z,1.60
2019-02-18T05:13:37.489Z,1.60
2019-02-18T05:16:03.521Z,1.60
2019-02-18T05:18:29.535Z,1.60
2019-02-18T05:20:55.554Z,1.60
2019-02-18T05:23:21.635Z,1.60
2019-02-18T05:25:47.643Z,1.60
2019-02-18T05:28:13.684Z,1.60
2019-02-18T05:30:39.705Z,1.60
2019-02-18T05:33:05.769Z,1.60
2019-02-18T05:35:31.770Z,1.60
2019-02-18T05:37:57.805Z,1.60
2019-02-18T05:40:23.835Z,1.60
2019-02-18T05:42:49.864Z,1.60
2019-02-18T05:45:15.875Z,1.60
2019-02-18T05:47:41.907Z,1.60
2019-02-18T05:50:08.029Z,1.60
2019-02-18T05:52:34.060Z,1.60
2019-02-18T05:55:00.407Z,1.60
2019-02-18T05:57:26.651Z,1.60
2019-02-18T05:59:52.688Z,1.50
2019-02-18T06:02:20.623Z,1.60
2019-02-18T06:04:46.644Z,1.60
2019-02-18T06:07:12.688Z,1.60
2019-02-18T06:09:38.704Z,1.60
2019-02-18T06:12:04.741Z,1.60
2019-02-18T06:14:30.759Z,1.60
2019-02-18T06:16:56.805Z,1.60
2019-02-18T06:19:22.815Z,1.60
2019-02-18T06:21:48.837Z,1.60
2019-02-18T06:24:14.867Z,1.60
2019-02-18T06:26:40.896Z,1.60
2019-02-18T06:29:06.989Z,1.50
2019-02-18T06:31:33.020Z,1.50
2019-02-18T06:33:59.051Z,1.50
2019-02-18T06:36:25.151Z,1.50
2019-02-18T06:38:51.211Z,1.60
2019-02-18T06:41:17.216Z,1.60
2019-02-18T06:43:43.275Z,1.60
2019-02-18T06:46:13.695Z,1.60
2019-02-18T06:48:41.632Z,1.70
2019-02-18T06:51:07.643Z,1.70
2019-02-18T06:53:33.671Z,1.70
2019-02-18T06:55:59.689Z,1.70
2019-02-18T06:58:30.300Z,1.70
2019-02-18T07:01:14.860Z,1.80
2019-02-18T07:03:48.671Z,1.80
2019-02-18T07:06:16.588Z,1.90
2019-02-18T07:08:44.525Z,2.10
2019-02-18T07:11:32.320Z,2.20
2019-02-18T07:13:58.355Z,2.30
2019-02-18T07:16:24.383Z,2.30
2019-02-18T07:18:50.412Z,2.30
2019-02-18T07:21:16.423Z,2.40
2019-02-18T07:23:42.451Z,2.50
2019-02-18T07:26:08.463Z,2.50
2019-02-18T07:28:34.499Z,2.50
2019-02-18T07:31:00.555Z,2.60
2019-02-18T07:33:26.595Z,2.60
2019-02-18T07:35:52.611Z,2.70
2019-02-18T07:38:18.643Z,2.70
2019-02-18T07:40:44.660Z,2.80
2019-02-18T07:43:10.692Z,2.90
2019-02-18T07:45:42.524Z,3.00
2019-02-18T07:48:08.567Z,3.10
2019-02-18T07:50:34.576Z,3.10
2019-02-18T07:53:01.095Z,3.20
2019-02-18T07:55:27.123Z,3.20
2019-02-18T07:57:53.160Z,3.30
2019-02-18T08:00:19.171Z,3.40
2019-02-18T08:02:45.188Z,3.40
2019-02-18T08:05:11.227Z,3.50
2019-02-18T08:07:37.239Z,3.70
2019-02-18T08:10:12.101Z,3.80
2019-02-18T08:12:34.919Z,3.90
2019-02-18T08:15:02.597Z,4.00
2019-02-18T08:17:28.617Z,4.20
2019-02-18T08:19:54.640Z,4.30
2019-02-18T08:22:20.659Z,4.40
2019-02-18T08:24:46.688Z,4.50
2019-02-18T08:27:12.699Z,4.50
2019-02-18T08:29:38.734Z,4.60
2019-02-18T08:32:04.747Z,4.70
2019-02-18T08:34:30.775Z,4.70
2019-02-18T08:36:56.887Z,4.80
2019-02-18T08:39:23.004Z,4.90
2019-02-18T08:41:49.035Z,5.00
2019-02-18T08:44:15.078Z,5.20
2019-02-18T08:46:41.090Z,5.20
2019-02-18T08:49:07.144Z,5.40
2019-02-18T08:51:33.243Z,5.50
2019-02-18T08:53:59.284Z,5.60
2019-02-18T08:56:25.320Z,5.70
2019-02-18T08:58:51.384Z,5.80
2019-02-18T09:01:17.407Z,6.00
2019-02-18T09:03:43.431Z,6.10
2019-02-18T09:06:09.468Z,6.30
2019-02-18T09:08:35.503Z,6.40
2019-02-18T09:11:01.516Z,6.50
2019-02-18T09:13:27.547Z,6.70
2019-02-18T09:16:00.131Z,6.80
2019-02-18T09:18:21.601Z,6.90
2019-02-18T09:20:47.610Z,7.00
2019-02-18T09:23:15.550Z,7.20
2019-02-18T09:25:43.694Z,7.30
2019-02-18T09:28:09.827Z,7.40
2019-02-18T09:30:37.743Z,7.50
2019-02-18T09:33:04.180Z,7.60
2019-02-18T09:35:30.287Z,7.70
2019-02-18T09:37:56.427Z,7.80
2019-02-18T09:40:22.452Z,8.00
2019-02-18T09:42:48.484Z,8.10
2019-02-18T09:45:14.983Z,8.20
2019-02-18T09:47:41.507Z,8.30
2019-02-18T09:50:08.739Z,8.30
2019-02-18T09:52:34.767Z,8.40
2019-02-18T09:55:02.495Z,8.50
2019-02-18T09:57:28.511Z,8.60
2019-02-18T09:59:54.539Z,8.70
2019-02-18T10:02:20.628Z,8.80
2019-02-18T10:04:46.661Z,9.00
2019-02-18T10:07:12.672Z,9.00
2019-02-18T10:09:38.703Z,9.10
2019-02-18T10:12:04.719Z,9.20
2019-02-18T10:14:30.775Z,9.30
2019-02-18T10:16:56.789Z,9.40
2019-02-18T10:19:22.883Z,9.50
2019-02-18T10:21:48.899Z,9.60
2019-02-18T10:24:14.943Z,9.80
2019-02-18T10:26:40.949Z,9.80
2019-02-18T10:29:07.094Z,10.00
2019-02-18T10:31:33.104Z,10.10
2019-02-18T10:33:59.135Z,10.30
2019-02-18T10:36:25.167Z,10.30
2019-02-18T10:38:51.260Z,10.40
2019-02-18T10:41:19.191Z,10.50
2019-02-18T10:43:45.188Z,10.60
2019-02-18T10:46:11.219Z,10.70
2019-02-18T10:48:37.549Z,10.70
2019-02-18T10:51:03.579Z,10.70
2019-02-18T10:53:29.612Z,10.80
2019-02-18T10:55:55.644Z,10.90
2019-02-18T10:58:21.659Z,11.00
2019-02-18T11:00:47.732Z,11.00
2019-02-18T11:03:13.752Z,11.10
2019-02-18T11:05:39.984Z,11.10
2019-02-18T11:08:05.995Z,11.20
2019-02-18T11:10:32.974Z,11.20
2019-02-18T11:12:59.046Z,11.30
2019-02-18T11:15:25.589Z,11.30
2019-02-18T11:17:51.603Z,11.40
2019-02-18T11:20:17.639Z,11.50
2019-02-18T11:22:43.659Z,11.60
2019-02-18T11:25:10.700Z,11.60
2019-02-18T11:27:36.859Z,11.80
2019-02-18T11:30:07.075Z,11.80
2019-02-18T11:32:33.391Z,12.00
2019-02-18T11:35:00.613Z,12.10
2019-02-18T11:37:26.959Z,12.20
2019-02-18T11:39:52.992Z,12.20
2019-02-18T11:42:19.063Z,12.30
2019-02-18T11:44:45.100Z,12.40
2019-02-18T11:47:11.116Z,12.40
2019-02-18T11:49:37.147Z,12.50
2019-02-18T11:52:03.175Z,12.50
2019-02-18T11:54:29.272Z,12.50
2019-02-18T11:56:55.305Z,12.60
2019-02-18T11:59:24.313Z,12.60
2019-02-18T12:01:49.255Z,12.70
2019-02-18T12:04:15.268Z,12.70
2019-02-18T12:06:41.409Z,12.80
2019-02-18T12:09:07.820Z,12.80
2019-02-18T12:14:01.837Z,12.90
2019-02-18T12:16:27.908Z,12.90
2019-02-18T12:18:54.011Z,13.00
2019-02-18T12:21:20.045Z,13.00
2019-02-18T12:23:46.140Z,13.10
2019-02-18T12:26:12.175Z,13.10
2019-02-18T12:28:38.187Z,13.10
2019-02-18T12:31:04.743Z,13.20
2019-02-18T12:33:30.754Z,13.20
2019-02-18T12:35:56.779Z,13.20
2019-02-18T12:38:22.795Z,13.20
2019-02-18T12:40:48.827Z,13.30
2019-02-18T12:43:14.845Z,13.30
2019-02-18T12:45:40.881Z,13.30
2019-02-18T12:48:06.923Z,13.40
2019-02-18T12:50:33.256Z,13.40
2019-02-18T12:52:59.290Z,13.40
2019-02-18T12:55:25.650Z,13.50
2019-02-18T12:57:51.884Z,13.50
2019-02-18T13:00:18.037Z,13.60
2019-02-18T13:02:45.193Z,13.60
2019-02-18T13:05:11.568Z,13.70
2019-02-18T13:07:37.700Z,13.70
2019-02-18T13:10:06.316Z,13.70
2019-02-18T13:12:32.436Z,13.80
2019-02-18T13:14:58.971Z,13.80
2019-02-18T13:17:25.003Z,13.80
2019-02-18T13:19:51.014Z,13.90
2019-02-18T13:22:17.143Z,13.90
2019-02-18T13:24:43.447Z,13.90
2019-02-18T13:27:09.584Z,13.90
2019-02-18T13:29:35.595Z,13.90
2019-02-18T13:32:01.638Z,14.00
2019-02-18T13:34:27.768Z,14.00
2019-02-18T13:36:56.003Z,14.00
2019-02-18T13:39:22.006Z,14.00
2019-02-18T13:41:48.039Z,14.00
2019-02-18T13:44:14.064Z,14.10
2019-02-18T13:46:40.095Z,14.10
2019-02-18T13:49:06.107Z,14.00
2019-02-18T13:51:32.143Z,14.00
2019-02-18T13:53:58.197Z,14.00
2019-02-18T13:56:24.228Z,14.00
2019-02-18T13:58:50.539Z,14.00
2019-02-18T14:01:16.567Z,14.10
2019-02-18T14:03:42.583Z,14.10
2019-02-18T14:06:08.723Z,14.20
2019-02-18T14:08:34.746Z,14.30
2019-02-18T14:11:01.989Z,14.30
2019-02-18T14:13:27.999Z,14.30
2019-02-18T14:15:54.038Z,14.40
2019-02-18T14:18:20.348Z,14.40
2019-02-18T14:20:46.359Z,14.30
2019-02-18T14:23:12.405Z,14.40
2019-02-18T14:25:38.524Z,14.40
2019-02-18T14:28:04.550Z,14.40
2019-02-18T14:30:30.571Z,14.50
2019-02-18T14:32:56.609Z,14.50
2019-02-18T14:35:22.622Z,14.50
2019-02-18T14:37:49.147Z,14.50
2019-02-18T14:40:17.171Z,14.60
2019-02-18T14:42:43.211Z,14.60
2019-02-18T14:45:09.746Z,14.60
2019-02-18T14:47:35.855Z,14.60
2019-02-18T14:50:02.469Z,14.70
2019-02-18T14:52:28.695Z,14.70
2019-02-18T14:54:55.255Z,14.70
2019-02-18T14:57:21.651Z,14.70
2019-02-18T14:59:47.664Z,14.60
2019-02-18T15:02:13.926Z,14.50
2019-02-18T15:04:40.039Z,14.50
2019-02-18T15:07:06.843Z,14.50
2019-02-18T15:09:32.968Z,14.40
2019-02-18T15:11:58.987Z,14.50
2019-02-18T15:14:25.021Z,14.40
2019-02-18T15:16:51.347Z,14.40
2019-02-18T15:19:17.355Z,14.40
2019-02-18T15:21:43.436Z,14.40
2019-02-18T15:24:09.460Z,14.40
2019-02-18T15:26:35.487Z,14.30
2019-02-18T15:29:01.504Z,14.30
2019-02-18T15:31:27.551Z,14.30
2019-02-18T15:33:53.611Z,14.30
2019-02-18T15:36:20.047Z,14.30
2019-02-18T15:38:46.086Z,14.20
2019-02-18T15:41:12.171Z,14.20
2019-02-18T15:43:38.207Z,14.20
2019-02-18T15:46:04.951Z,14.10
2019-02-18T15:48:30.987Z,14.10
2019-02-18T15:50:57.202Z,14.10
2019-02-18T15:53:23.233Z,14.10
2019-02-18T15:55:49.561Z,14.00
2019-02-18T15:58:15.598Z,13.90
2019-02-18T16:00:41.712Z,13.90
2019-02-18T16:03:27.626Z,13.80
2019-02-18T16:05:53.823Z,13.80
2019-02-18T16:08:19.874Z,13.70
2019-02-18T16:10:46.387Z,13.70
2019-02-18T16:13:15.327Z,13.70
2019-02-18T16:15:41.338Z,13.60
2019-02-18T16:18:07.591Z,13.50
2019-02-18T16:20:33.668Z,13.40
2019-02-18T16:25:34.075Z,13.20
2019-02-18T16:28:02.223Z,13.10
2019-02-18T16:30:28.287Z,13.00
2019-02-18T16:32:54.776Z,12.90
2019-02-18T16:35:20.888Z,12.80
2019-02-18T16:37:47.051Z,12.60
2019-02-18T16:40:16.759Z,12.50
2019-02-18T16:42:42.892Z,12.40
2019-02-18T16:45:11.672Z,12.20
2019-02-18T16:47:37.791Z,12.10
2019-02-18T16:50:05.040Z,12.00
2019-02-18T16:52:31.188Z,11.90
2019-02-18T16:54:57.223Z,11.70
2019-02-18T16:57:23.250Z,11.60
2019-02-18T16:59:49.274Z,11.40
2019-02-18T17:02:15.311Z,11.30
2019-02-18T17:04:41.767Z,11.10
2019-02-18T17:09:47.352Z,11.00
2019-02-18T17:12:33.268Z,10.80
2019-02-18T17:14:59.287Z,10.80
2019-02-18T17:17:25.439Z,10.70
2019-02-18T17:19:51.527Z,10.50
2019-02-18T17:22:17.559Z,10.50
2019-02-18T17:24:43.571Z,10.40
2019-02-18T17:27:09.759Z,10.30
2019-02-18T17:29:36.580Z,10.20
2019-02-18T17:32:03.038Z,10.10
2019-02-18T17:34:29.349Z,10.10
2019-02-18T17:36:55.699Z,10.00
2019-02-18T17:39:21.723Z,9.90
2019-02-18T17:41:47.775Z,9.90
2019-02-18T17:44:20.036Z,9.90
2019-02-18T17:46:41.759Z,9.80
2019-02-18T17:49:07.787Z,9.80
2019-02-18T17:51:33.948Z,9.70
2019-02-18T17:53:59.973Z,9.70
2019-02-18T17:56:26.320Z,9.60
2019-02-18T17:58:52.644Z,9.60
2019-02-18T18:01:18.708Z,9.60
2019-02-18T18:03:44.828Z,9.50
2019-02-18T18:06:30.728Z,9.50
2019-02-18T18:08:56.853Z,9.50
2019-02-18T18:11:23.369Z,9.50
2019-02-18T18:13:49.423Z,9.40
2019-02-18T18:16:15.478Z,9.40
2019-02-18T18:18:41.648Z,9.40
2019-02-18T18:21:07.663Z,9.30
2019-02-18T18:23:33.705Z,9.30
2019-02-18T18:25:59.720Z,9.20
2019-02-18T18:28:25.781Z,9.10
2019-02-18T18:30:51.852Z,9.00
2019-02-18T18:33:18.933Z,8.90
2019-02-18T18:35:45.000Z,8.80
2019-02-18T18:38:11.040Z,8.70
2019-02-18T18:40:37.057Z,8.70
2019-02-18T18:43:03.126Z,8.60
2019-02-18T18:45:29.168Z,8.50
2019-02-18T18:47:55.272Z,8.40
2019-02-18T18:50:21.787Z,8.30
2019-02-18T18:52:47.803Z,8.30
2019-02-18T18:55:14.048Z,8.20
2019-02-18T18:57:40.055Z,8.10
2019-02-18T19:00:09.791Z,8.10
2019-02-18T19:02:35.806Z,8.00
2019-02-18T19:05:03.039Z,7.90
2019-02-18T19:07:29.213Z,7.90
2019-02-18T19:09:55.910Z,7.80
2019-02-18T19:12:21.928Z,7.70
2019-02-18T19:14:47.990Z,7.70
2019-02-18T19:17:14.014Z,7.70
2019-02-18T19:19:40.044Z,7.60
2019-02-18T19:22:06.059Z,7.50
2019-02-18T19:24:32.091Z,7.50
2019-02-18T19:26:58.107Z,7.50
2019-02-18T19:29:24.151Z,7.30
2019-02-18T19:31:50.173Z,7.30
2019-02-18T19:34:16.203Z,7.30
2019-02-18T19:36:42.215Z,7.30
2019-02-18T19:39:08.255Z,7.20
2019-02-18T19:41:34.271Z,7.20
2019-02-18T19:44:00.299Z,7.20
2019-02-18T19:46:26.515Z,7.20
2019-02-18T19:48:52.547Z,7.10
2019-02-18T19:51:18.563Z,7.10
2019-02-18T19:53:44.603Z,7.10
2019-02-18T19:56:10.723Z,7.00
2019-02-18T19:58:36.752Z,7.00
2019-02-18T20:01:02.768Z,7.00
2019-02-18T20:03:28.786Z,6.90
2019-02-18T20:05:55.223Z,6.90
2019-02-18T20:08:21.259Z,6.90
2019-02-18T20:10:47.335Z,6.80
2019-02-18T20:13:13.351Z,6.80
2019-02-18T20:15:40.047Z,6.80
2019-02-18T20:18:06.059Z,6.70
2019-02-18T20:20:32.144Z,6.70
2019-02-18T20:22:58.157Z,6.60
2019-02-18T20:25:24.687Z,6.50
2019-02-18T20:27:50.887Z,6.50
2019-02-18T20:30:16.923Z,6.50
2019-02-18T20:32:42.939Z,6.40
2019-02-18T20:35:09.766Z,6.40
2019-02-18T20:37:35.779Z,6.40
2019-02-18T20:40:01.839Z,6.40
2019-02-18T20:42:27.979Z,6.40
2019-02-18T20:44:54.448Z,6.40
2019-02-18T20:47:21.505Z,6.30
2019-02-18T20:49:47.704Z,6.30
2019-02-18T20:52:13.718Z,6.30
2019-02-18T20:54:39.764Z,6.30
2019-02-18T20:57:05.807Z,6.20
2019-02-18T20:59:31.852Z,6.10
2019-02-18T21:01:57.863Z,6.10
2019-02-18T21:04:24.375Z,6.10
2019-02-18T21:06:50.419Z,6.00
2019-02-18T21:09:16.435Z,5.90
2019-02-18T21:11:42.475Z,5.90
2019-02-18T21:14:15.868Z,5.90
2019-02-18T21:16:36.512Z,5.90
2019-02-18T21:19:02.727Z,5.80
2019-02-18T21:26:33.636Z,5.80
2019-02-18T21:28:59.756Z,5.70
2019-02-18T21:31:25.825Z,5.70
2019-02-18T21:33:51.894Z,5.70
2019-02-18T21:36:18.363Z,5.70
2019-02-18T21:38:44.374Z,5.70
2019-02-18T21:41:10.811Z,5.60
2019-02-18T21:43:36.907Z,5.60
2019-02-18T21:46:02.947Z,5.60
2019-02-18T21:48:29.052Z,5.60
2019-02-18T21:50:55.079Z,5.50
2019-02-18T21:53:21.094Z,5.50
2019-02-18T21:55:47.543Z,5.50
2019-02-18T21:58:14.741Z,5.50
2019-02-18T22:00:41.032Z,5.50
2019-02-18T22:03:07.048Z,5.50
2019-02-18T22:05:33.158Z,5.50
2019-02-18T22:08:00.409Z,5.50
2019-02-18T22:10:26.603Z,5.50
2019-02-18T22:12:52.619Z,5.50
2019-02-18T22:15:18.651Z,5.40
2019-02-18T22:17:44.663Z,5.40
2019-02-18T22:20:12.379Z,5.40
2019-02-18T22:22:38.419Z,5.30
2019-02-18T22:25:09.646Z,5.30
2019-02-18T22:27:35.762Z,5.30
2019-02-18T22:30:04.292Z,5.20
2019-02-18T22:32:30.320Z,5.20
2019-02-18T22:34:56.335Z,5.20
2019-02-18T22:37:22.394Z,5.20
2019-02-18T22:39:48.817Z,5.10
2019-02-18T22:42:14.851Z,5.10
2019-02-18T22:44:42.088Z,5.10
2019-02-18T22:47:08.323Z,5.00
2019-02-18T22:49:34.338Z,5.00
2019-02-18T22:52:01.302Z,5.00
2019-02-18T22:54:27.328Z,4.90
2019-02-18T22:56:53.361Z,4.90
2019-02-18T22:59:19.375Z,4.90
2019-02-18T23:01:45.815Z,4.90
2019-02-18T23:04:11.872Z,4.90
2019-02-18T23:06:37.908Z,4.90
2019-02-18T23:09:06.464Z,4.80
2019-02-18T23:11:32.491Z,4.90
2019-02-18T23:13:58.511Z,4.80
2019-02-18T23:16:24.543Z,4.80
2019-02-18T23:18:50.559Z,4.80
2019-02-18T23:21:16.620Z,4.80
2019-02-18T23:23:42.635Z,4.80
2019-02-18T23:26:08.668Z,4.80
2019-02-18T23:28:34.695Z,4.80
2019-02-18T23:31:00.883Z,4.80
2019-02-18T23:33:26.899Z,4.80
2019-02-18T23:35:52.936Z,4.80
2019-02-18T23:38:18.950Z,4.80
2019-02-18T23:40:44.998Z,4.80
2019-02-18T23:43:11.039Z,4.80
2019-02-18T23:45:37.093Z,4.80
2019-02-18T23:48:03.310Z,4.80
2019-02-18T23:50:29.319Z,4.80
2019-02-18T23:52:55.415Z,4.80
2019-02-18T23:55:21.427Z,4.80
2019-02-18T23:57:47.660Z,4.80
